Time;durP1;ratioP1;P1;durP2;ratioP2;P2;SDS_P1;SDS_P2;PMS_P1;PMS_P2;Temp;Humidity;BMP_temperature;BMP_pressure;BME280_temperature;BME280_humidity;BME280_pressure;Samples;Min_cycle;Max_cycle;Signal;HPM_P1;HPM_P2
2022/04/05 00:00:39;;;;;;;8.35;5.85;;;;;;;-144.47;63.99;53424.19;5058692;28;20036;-66
2022/04/05 00:03:04;;;;;;;10.27;6.35;;;;;;;-144.47;64.47;53463.91;5065222;28;20040;-67
2022/04/05 00:05:30;;;;;;;10.25;6.20;;;;;;;-144.47;64.67;53477.81;5068433;28;20608;-68
2022/04/05 00:07:55;;;;;;;9.85;6.20;;;;;;;-144.47;64.84;53459.94;5067193;28;20075;-67
2022/04/05 00:10:24;;;;;;;8.90;6.35;;;;;;;-144.47;65.09;53434.09;5068797;28;20101;-68
2022/04/05 00:12:49;;;;;;;10.73;6.72;;;;;;;-144.47;65.91;53479.81;5067081;28;20029;-67
2022/04/05 00:15:15;;;;;;;9.55;6.32;;;;;;;-144.47;65.39;53434.09;5066661;28;20036;-67
2022/04/05 00:17:41;;;;;;;11.63;6.65;;;;;;;-144.47;65.62;53461.91;5065950;28;20028;-67
2022/04/05 00:20:07;;;;;;;9.43;6.28;;;;;;;-144.47;65.31;53463.91;5066982;28;20134;-67
2022/04/05 00:22:33;;;;;;;10.40;6.75;;;;;;;-144.47;65.60;53483.78;5049577;28;20547;-68
2022/04/05 00:24:59;;;;;;;12.80;6.45;;;;;;;-144.47;65.37;53501.66;5067726;28;20374;-66
2022/04/05 00:27:24;;;;;;;8.35;6.03;;;;;;;-144.47;65.19;53440.06;5067880;28;20033;-66
2022/04/05 00:29:49;;;;;;;10.70;6.38;;;;;;;-144.47;65.24;53442.06;5069092;28;20028;-67
2022/04/05 00:32:15;;;;;;;10.07;6.75;;;;;;;-144.47;65.81;53450.00;5067509;28;20502;-68
2022/04/05 00:34:40;;;;;;;11.98;7.90;;;;;;;-144.47;65.35;53463.91;5065883;28;20413;-65
2022/04/05 00:37:06;;;;;;;10.25;6.45;;;;;;;-144.47;65.87;53446.03;5068012;28;20403;-67
2022/04/05 00:39:32;;;;;;;11.68;6.47;;;;;;;-144.47;65.97;53459.94;5049013;28;20043;-67
2022/04/05 00:41:57;;;;;;;12.10;7.65;;;;;;;-144.47;66.54;53448.00;5064651;28;20029;-65
2022/04/05 00:44:23;;;;;;;11.35;7.25;;;;;;;-144.47;66.52;53446.03;5056565;28;20028;-65
2022/04/05 00:46:51;;;;;;;10.25;6.75;;;;;;;-144.47;66.85;53493.72;5071259;28;20024;-66
2022/04/05 00:49:31;;;;;;;12.63;7.90;;;;;;;-144.47;67.33;53459.94;5067057;28;20134;-66
2022/04/05 00:51:58;;;;;;;10.98;7.15;;;;;;;-144.47;67.74;53424.19;5073983;28;20082;-67
2022/04/05 00:54:25;;;;;;;11.48;7.50;;;;;;;-144.47;67.70;53450.00;5057427;28;20057;-66
2022/04/05 00:56:53;;;;;;;13.80;8.15;;;;;;;-144.47;68.03;53493.72;5067466;28;20040;-66
2022/04/05 00:59:19;;;;;;;11.68;7.88;;;;;;;-144.47;67.92;53434.09;5068640;28;20041;-67
2022/04/05 01:01:46;;;;;;;12.20;8.25;;;;;;;-144.47;68.45;53465.91;5068216;28;20103;-66
2022/04/05 01:04:12;;;;;;;11.73;7.53;;;;;;;-144.47;67.73;53475.81;5063005;28;20110;-68
2022/04/05 01:06:44;;;;;;;12.38;8.25;;;;;;;-144.47;68.47;53471.84;5049575;28;20064;-67
2022/04/05 01:09:10;;;;;;;13.68;8.00;;;;;;;-144.47;68.73;53450.00;5066498;28;20075;-67
2022/04/05 01:11:36;;;;;;;14.38;9.60;;;;;;;-144.47;69.00;53483.78;5072265;28;20052;-66
2022/04/05 01:14:02;;;;;;;13.48;8.60;;;;;;;-144.47;68.75;53511.59;5068440;28;20036;-67
2022/04/05 01:16:27;;;;;;;14.48;9.13;;;;;;;-144.47;69.09;53479.81;5078852;22;20075;-64
2022/04/05 01:18:53;;;;;;;13.95;9.13;;;;;;;-144.47;69.03;53483.78;5065476;28;20036;-66
2022/04/05 01:21:19;;;;;;;13.00;8.73;;;;;;;-144.47;69.54;53459.94;5064628;28;20411;-66
2022/04/05 01:24:23;;;;;;;16.20;9.30;;;;;;;-144.47;69.44;53438.09;5066748;28;20037;-65
2022/04/05 01:26:53;;;;;;;13.77;8.95;;;;;;;-144.47;69.62;53469.88;4969828;28;20043;-64
2022/04/05 01:29:21;;;;;;;12.40;8.18;;;;;;;-144.47;69.59;53505.63;4965684;28;20500;-62
2022/04/05 01:32:06;;;;;;;13.93;8.80;;;;;;;-144.47;69.57;53493.72;4969581;28;20066;-63
2022/04/05 01:34:34;;;;;;;13.65;8.98;;;;;;;-144.47;69.57;53481.78;4968195;28;20050;-64
2022/04/05 01:37:01;;;;;;;13.98;8.95;;;;;;;-144.47;69.86;53465.91;4970441;28;20031;-64
2022/04/05 01:39:29;;;;;;;14.95;8.57;;;;;;;-144.47;70.06;53481.78;4969355;28;20129;-64
2022/04/05 01:41:59;;;;;;;13.80;8.85;;;;;;;-144.47;70.35;53465.91;4968132;28;20043;-63
2022/04/05 01:44:27;;;;;;;14.50;8.73;;;;;;;-144.47;69.82;53459.94;4968747;28;20305;-62
2022/04/05 01:46:52;;;;;;;14.75;8.63;;;;;;;-144.47;69.51;53457.94;4953616;28;20041;-64
2022/04/05 01:49:18;;;;;;;17.95;8.80;;;;;;;-144.47;69.66;53483.78;4961074;28;20034;-64
2022/04/05 01:51:45;;;;;;;14.30;8.18;;;;;;;-144.47;69.70;53481.78;4967021;28;20149;-64
2022/04/05 01:54:14;;;;;;;14.25;8.10;;;;;;;-144.47;69.90;53465.91;4967479;28;20131;-65
2022/04/05 01:56:50;;;;;;;14.85;8.63;;;;;;;-144.47;69.96;53501.66;4981345;28;20408;-64
2022/04/05 01:59:21;;;;;;;13.55;7.60;;;;;;;-144.47;69.54;53455.97;5070188;28;20059;-65
2022/04/05 02:01:47;;;;;;;15.23;8.18;;;;;;;-144.47;69.64;53497.69;5062386;28;20517;-64
2022/04/05 02:04:13;;;;;;;13.45;7.95;;;;;;;-144.47;69.67;53461.91;5063932;28;20017;-64
2022/04/05 02:06:40;;;;;;;18.08;8.05;;;;;;;-144.47;69.84;53453.97;5066548;28;20033;-64
2022/04/05 02:09:05;;;;;;;13.93;8.43;;;;;;;-144.47;69.93;53483.78;5067422;28;20029;-65
2022/04/05 02:11:32;;;;;;;14.57;8.20;;;;;;;-144.47;70.05;53461.91;5070391;28;20028;-65
2022/04/05 02:13:57;;;;;;;13.93;7.63;;;;;;;-144.47;69.95;53457.94;5065068;28;20553;-62
2022/04/05 02:16:22;;;;;;;15.88;8.07;;;;;;;-144.47;69.94;53465.91;5072624;28;20028;-67
2022/04/05 02:18:48;;;;;;;14.60;8.07;;;;;;;-144.47;70.00;53467.88;5064789;28;21666;-64
2022/04/05 02:21:13;;;;;;;13.20;7.18;;;;;;;-144.47;70.10;53469.88;5069597;28;20203;-64
2022/04/05 02:23:39;;;;;;;14.55;7.22;;;;;;;-144.47;70.27;53440.06;5066705;28;20136;-64
2022/04/05 02:26:04;;;;;;;14.30;7.40;;;;;;;-144.47;70.19;53501.66;5068352;28;20036;-65
2022/04/05 02:28:29;;;;;;;12.73;7.43;;;;;;;-144.47;70.14;53461.91;5068676;28;20091;-64
2022/04/05 02:30:55;;;;;;;14.35;7.72;;;;;;;-144.47;70.17;53479.81;5067737;28;20017;-66
2022/04/05 02:33:21;;;;;;;15.70;6.95;;;;;;;-144.47;70.26;53479.81;5067950;28;20261;-64
2022/04/05 02:35:48;;;;;;;13.30;6.90;;;;;;;-144.47;70.37;53491.72;5060949;28;20460;-62
2022/04/05 02:38:14;;;;;;;13.43;7.75;;;;;;;-144.47;70.59;53479.81;5068112;28;20454;-63
2022/04/05 02:40:39;;;;;;;12.30;7.03;;;;;;;-144.47;70.84;53511.59;5067826;28;20502;-64
2022/04/05 02:43:05;;;;;;;13.20;7.43;;;;;;;-144.47;70.88;53428.16;5069049;28;20058;-64
2022/04/05 02:45:30;;;;;;;13.38;6.72;;;;;;;-144.47;71.04;53463.91;5049494;28;20044;-64
2022/04/05 02:47:56;;;;;;;13.00;6.18;;;;;;;-144.47;71.02;53493.72;5066102;28;20047;-64
2022/04/05 02:50:21;;;;;;;11.10;6.07;;;;;;;-144.47;70.84;53515.56;5069545;28;20075;-64
2022/04/05 02:52:47;;;;;;;12.55;6.65;;;;;;;-144.47;70.82;53467.88;5068395;28;20032;-64
2022/04/05 02:55:13;;;;;;;13.32;6.45;;;;;;;-144.47;70.74;53471.84;5069510;28;20094;-64
2022/04/05 02:57:40;;;;;;;11.88;6.43;;;;;;;-144.47;70.69;53481.78;5069481;28;20496;-64
2022/04/05 03:00:11;;;;;;;12.10;6.60;;;;;;;-144.47;70.93;53479.81;5069468;28;20043;-65
2022/04/05 03:02:37;;;;;;;15.07;6.15;;;;;;;-144.47;70.91;53479.81;5068767;28;20114;-62
2022/04/05 03:05:05;;;;;;;12.43;6.20;;;;;;;-144.47;70.90;53487.75;5050505;28;20665;-64
2022/04/05 03:07:30;;;;;;;10.68;5.78;;;;;;;-144.47;70.91;53475.81;5067538;28;20489;-64
2022/04/05 03:09:56;;;;;;;12.68;6.45;;;;;;;-144.47;70.64;53471.84;5069715;28;20044;-63
2022/04/05 03:12:22;;;;;;;12.77;6.20;;;;;;;-144.47;70.92;53485.75;5069231;28;20086;-66
2022/04/05 03:14:47;;;;;;;15.40;5.65;;;;;;;-144.47;71.00;53461.91;5068781;28;20035;-64
2022/04/05 03:17:12;;;;;;;11.60;5.80;;;;;;;-144.47;70.99;53477.81;5074629;28;20391;-64
2022/04/05 03:19:38;;;;;;;9.18;5.18;;;;;;;-144.47;71.02;53481.78;5068779;28;20016;-66
2022/04/05 03:22:05;;;;;;;19.25;5.63;;;;;;;-144.47;70.87;53499.66;5069588;28;20369;-64
2022/04/05 03:24:31;;;;;;;10.07;5.10;;;;;;;-144.47;70.90;53465.91;5046819;28;20044;-64
2022/04/05 03:26:57;;;;;;;10.55;4.93;;;;;;;-144.47;70.82;53481.78;5052158;28;20120;-64
2022/04/05 03:29:22;;;;;;;10.38;5.53;;;;;;;-144.47;70.78;53497.69;5069872;28;20120;-64
2022/04/05 03:31:48;;;;;;;11.45;5.63;;;;;;;-144.47;70.81;53499.66;5051313;28;20029;-64
2022/04/05 03:34:14;;;;;;;8.38;4.55;;;;;;;-144.47;70.81;53507.59;5049090;28;20020;-64
2022/04/05 03:36:41;;;;;;;15.95;5.63;;;;;;;-144.47;70.78;53452.00;5065097;28;20036;-63
2022/04/05 03:39:07;;;;;;;10.18;5.28;;;;;;;-144.47;70.71;53493.72;5067836;28;20410;-63
2022/04/05 03:41:32;;;;;;;12.07;5.13;;;;;;;-144.47;70.55;53505.63;5069329;28;20037;-66
2022/04/05 03:43:58;;;;;;;9.77;5.35;;;;;;;-144.47;70.63;53469.88;5068943;28;20029;-63
2022/04/05 03:46:23;;;;;;;9.40;4.78;;;;;;;-144.47;70.49;53495.69;5066595;28;20024;-64
2022/04/05 03:48:48;;;;;;;9.38;4.85;;;;;;;-144.47;70.56;53450.00;5066401;28;20082;-62
2022/04/05 03:51:14;;;;;;;11.82;4.97;;;;;;;-144.47;70.41;53473.84;5067731;28;20036;-64
2022/04/05 03:53:39;;;;;;;11.35;4.38;;;;;;;-144.47;70.46;53479.81;5065557;28;20070;-64
2022/04/05 03:56:04;;;;;;;10.32;4.65;;;;;;;-144.47;70.39;53440.06;5062779;28;20032;-64
2022/04/05 03:58:30;;;;;;;10.43;4.85;;;;;;;-144.47;70.39;53453.97;5063157;28;20523;-64
2022/04/05 04:00:55;;;;;;;14.57;5.25;;;;;;;-144.47;70.53;53479.81;5068976;28;20639;-62
2022/04/05 04:03:20;;;;;;;14.20;4.93;;;;;;;-144.47;70.34;53446.03;5064597;28;20128;-65
2022/04/05 04:05:45;;;;;;;9.05;5.07;;;;;;;-144.47;70.26;53501.66;5068120;28;20029;-64
2022/04/05 04:08:11;;;;;;;11.80;5.53;;;;;;;-144.47;70.28;53455.97;5066012;28;20070;-65
2022/04/05 04:10:36;;;;;;;10.18;5.63;;;;;;;-144.47;70.54;53481.78;5067429;28;20023;-63
2022/04/05 04:13:02;;;;;;;13.38;6.45;;;;;;;-144.47;70.74;53491.72;5075071;28;20032;-63
2022/04/05 04:15:27;;;;;;;11.73;6.07;;;;;;;-144.47;70.39;53453.97;5075822;28;20024;-64
2022/04/05 04:17:52;;;;;;;11.57;5.40;;;;;;;-144.47;70.44;53503.63;5062523;28;20052;-65
2022/04/05 04:20:18;;;;;;;11.98;6.68;;;;;;;-144.47;70.88;53475.81;5071805;28;20057;-64
2022/04/05 04:22:43;;;;;;;12.18;6.68;;;;;;;-144.47;70.68;53507.59;5068811;28;20028;-64
2022/04/05 04:25:09;;;;;;;12.73;6.57;;;;;;;-144.47;71.13;53475.81;5068408;28;20107;-65
2022/04/05 04:27:34;;;;;;;15.70;7.22;;;;;;;-144.47;70.98;53479.81;5062356;28;20119;-63
2022/04/05 04:30:00;;;;;;;14.40;6.55;;;;;;;-144.47;70.94;53503.63;5068495;28;20482;-64
2022/04/05 04:32:25;;;;;;;17.05;7.60;;;;;;;-144.47;71.08;53459.94;5065936;28;20047;-63
2022/04/05 04:34:51;;;;;;;15.25;8.02;;;;;;;-144.47;71.46;53463.91;5066909;28;20033;-64
2022/04/05 04:37:17;;;;;;;18.17;8.25;;;;;;;-144.47;71.48;53493.72;5049581;28;20123;-65
2022/04/05 04:39:42;;;;;;;20.27;7.85;;;;;;;-144.47;71.56;53489.72;5068465;28;20464;-65
2022/04/05 04:42:08;;;;;;;14.77;8.32;;;;;;;-144.47;71.48;53455.97;5067946;28;20086;-65
2022/04/05 04:44:34;;;;;;;18.23;9.13;;;;;;;-144.47;71.78;53503.63;5067989;28;20025;-64
2022/04/05 04:46:59;;;;;;;17.45;8.35;;;;;;;-144.47;72.00;53450.00;5081450;28;20112;-66
2022/04/05 04:49:25;;;;;;;16.35;8.43;;;;;;;-144.47;72.16;53459.94;5067346;28;20021;-63
2022/04/05 04:51:50;;;;;;;18.60;8.77;;;;;;;-144.47;72.41;53493.72;5056136;28;20149;-64
2022/04/05 04:54:15;;;;;;;18.70;9.05;;;;;;;-144.47;72.53;53503.63;5074583;28;20044;-64
2022/04/05 04:56:41;;;;;;;16.92;8.68;;;;;;;-144.47;72.85;53477.81;5068458;28;20116;-65
2022/04/05 04:59:06;;;;;;;20.02;9.73;;;;;;;-144.47;72.78;53499.66;5067342;28;20040;-65
2022/04/05 05:01:31;;;;;;;17.38;8.98;;;;;;;-144.47;72.73;53489.72;5056463;28;20101;-64
2022/04/05 05:03:56;;;;;;;18.27;8.85;;;;;;;-144.47;72.85;53497.69;5076193;28;20036;-65
2022/04/05 05:06:22;;;;;;;19.30;9.80;;;;;;;-144.47;72.80;53461.91;5083260;28;20037;-63
2022/04/05 05:08:47;;;;;;;24.08;11.15;;;;;;;-144.47;72.95;53489.72;5070213;28;20044;-65
2022/04/05 05:11:12;;;;;;;20.13;9.57;;;;;;;-144.47;72.93;53475.81;5070580;28;20036;-64
2022/04/05 05:13:38;;;;;;;20.98;10.50;;;;;;;-144.47;72.91;53479.81;5064247;28;20112;-64
2022/04/05 05:16:03;;;;;;;18.55;10.05;;;;;;;-144.47;72.83;53499.66;5071731;28;20019;-64
2022/04/05 05:18:29;;;;;;;19.23;10.10;;;;;;;-144.47;72.69;53479.81;5057171;28;20607;-65
2022/04/05 05:20:55;;;;;;;21.45;10.15;;;;;;;-144.47;72.69;53479.81;5071202;28;20028;-64
2022/04/05 05:23:20;;;;;;;18.40;9.65;;;;;;;-144.47;72.75;53467.88;5067523;28;20406;-65
2022/04/05 05:25:46;;;;;;;20.15;10.52;;;;;;;-144.47;72.45;53469.88;5068272;28;20426;-66
2022/04/05 05:28:11;;;;;;;20.17;10.75;;;;;;;-144.47;72.77;53473.84;5071303;28;20036;-63
2022/04/05 05:30:37;;;;;;;27.65;10.40;;;;;;;-144.47;72.55;53525.50;5071022;28;20033;-64
2022/04/05 05:33:02;;;;;;;25.77;11.57;;;;;;;-144.47;72.53;53483.78;5048936;28;20071;-63
2022/04/05 05:35:27;;;;;;;18.58;10.18;;;;;;;-144.47;72.37;53481.78;5071189;28;20028;-65
2022/04/05 05:37:53;;;;;;;23.92;11.60;;;;;;;-144.47;72.42;53481.78;5069704;28;20059;-63
2022/04/05 05:40:19;;;;;;;22.63;11.65;;;;;;;-144.47;72.19;53459.94;5072113;28;20036;-68
2022/04/05 05:42:59;;;;;;;22.35;11.43;;;;;;;-144.47;72.18;53501.66;5070980;28;20566;-65
2022/04/05 05:45:26;;;;;;;22.80;10.27;;;;;;;-144.47;72.03;53473.84;5066319;28;20028;-65
2022/04/05 05:47:52;;;;;;;21.35;11.77;;;;;;;-144.47;72.03;53459.94;5070606;28;20036;-65
2022/04/05 05:50:18;;;;;;;24.20;12.07;;;;;;;-144.47;72.05;53511.59;5069295;28;20394;-64
2022/04/05 05:52:44;;;;;;;21.08;10.65;;;;;;;-144.47;71.83;53483.78;5069604;28;20021;-63
2022/04/05 05:55:11;;;;;;;21.50;11.52;;;;;;;-144.47;71.56;53491.72;5070958;28;20031;-64
2022/04/05 05:57:37;;;;;;;22.35;11.63;;;;;;;-144.47;71.31;53440.06;5070224;28;20080;-66
2022/04/05 06:00:06;;;;;;;23.83;13.40;;;;;;;-144.47;71.31;53465.91;5069664;28;20028;-63
2022/04/05 06:02:32;;;;;;;23.77;12.95;;;;;;;-144.47;70.69;53463.91;5051558;28;20047;-64
2022/04/05 06:04:57;;;;;;;20.05;11.73;;;;;;;-144.47;70.45;53477.81;5067941;28;20036;-65
2022/04/05 06:07:22;;;;;;;24.15;13.57;;;;;;;-144.47;70.24;53471.84;5069431;28;20040;-64
2022/04/05 06:09:48;;;;;;;23.80;13.05;;;;;;;-144.47;69.48;53452.00;5073041;28;20059;-64
2022/04/05 06:12:13;;;;;;;27.80;12.43;;;;;;;-144.47;69.24;53459.94;5071260;28;20032;-63
2022/04/05 06:14:38;;;;;;;22.85;12.68;;;;;;;-144.47;69.17;53463.91;5067561;28;20642;-64
2022/04/05 06:17:04;;;;;;;20.63;11.13;;;;;;;-144.47;68.98;53501.66;5069904;28;20039;-64
2022/04/05 06:19:30;;;;;;;23.70;12.88;;;;;;;-144.47;69.21;53491.72;5068960;28;20029;-64
2022/04/05 06:21:55;;;;;;;22.75;11.85;;;;;;;-144.47;68.80;53465.91;5052264;28;20134;-65
2022/04/05 06:24:20;;;;;;;21.77;12.15;;;;;;;-144.47;68.40;53448.00;5067557;28;20033;-62
2022/04/05 06:26:46;;;;;;;25.77;12.57;;;;;;;-144.47;68.49;53495.69;5066820;28;20091;-64
2022/04/05 06:29:11;;;;;;;24.83;12.80;;;;;;;-144.47;68.35;53471.84;5086251;28;20043;-65
2022/04/05 06:31:37;;;;;;;20.23;11.32;;;;;;;-144.47;68.10;53469.88;5055282;28;20039;-67
2022/04/05 06:34:02;;;;;;;21.55;12.38;;;;;;;-144.47;68.29;53453.97;5068507;28;20020;-64
2022/04/05 06:36:29;;;;;;;26.92;12.98;;;;;;;-144.47;67.78;53461.91;5073480;28;20055;-65
2022/04/05 06:38:54;;;;;;;28.42;13.73;;;;;;;-144.47;67.53;53446.03;5070035;28;20115;-64
2022/04/05 06:41:20;;;;;;;24.75;13.23;;;;;;;-144.47;67.46;53491.72;5070018;28;20116;-65
2022/04/05 06:43:46;;;;;;;27.60;13.40;;;;;;;-144.47;67.36;53450.00;5071229;28;20077;-66
2022/04/05 06:46:11;;;;;;;22.75;12.30;;;;;;;-144.47;67.25;53430.13;5072977;28;20029;-65
2022/04/05 06:48:36;;;;;;;25.33;11.93;;;;;;;-144.47;67.01;53465.91;5049047;28;20044;-65
2022/04/05 06:51:02;;;;;;;16.88;9.55;;;;;;;-144.47;66.27;53455.97;5075485;28;20032;-65
2022/04/05 06:53:27;;;;;;;15.25;8.43;;;;;;;-144.47;66.00;53452.00;5068813;28;20066;-66
2022/04/05 06:55:52;;;;;;;13.57;7.78;;;;;;;-144.47;65.84;53457.94;5069648;28;20134;-66
2022/04/05 06:58:17;;;;;;;12.48;6.85;;;;;;;-144.47;65.51;53475.81;5075312;28;20090;-68
2022/04/05 07:00:43;;;;;;;15.90;6.45;;;;;;;-144.47;65.56;53479.81;5069805;28;20087;-65
2022/04/05 07:03:08;;;;;;;12.43;6.38;;;;;;;-144.47;65.42;53471.84;5067900;28;20037;-66
2022/04/05 07:05:33;;;;;;;8.80;5.10;;;;;;;-144.47;65.17;53430.13;5066707;28;20037;-65
2022/04/05 07:07:59;;;;;;;9.65;4.45;;;;;;;-144.47;65.06;53471.84;5055301;28;20162;-66
2022/04/05 07:10:24;;;;;;;13.15;4.30;;;;;;;-144.47;64.35;53467.88;5076329;28;20021;-65
2022/04/05 07:12:50;;;;;;;7.00;3.58;;;;;;;-144.47;64.27;53475.81;5062736;28;20039;-64
2022/04/05 07:15:15;;;;;;;6.65;3.15;;;;;;;-144.47;64.24;53440.06;5064159;28;20048;-67
2022/04/05 07:17:41;;;;;;;7.47;2.42;;;;;;;-144.47;63.15;53436.09;5084699;22;20513;-67
2022/04/05 07:20:09;;;;;;;5.60;2.60;;;;;;;-144.47;63.25;53473.84;5068772;28;20044;-69
2022/04/05 07:22:46;;;;;;;5.45;2.35;;;;;;;-144.47;63.60;53424.19;5069891;28;20044;-71
2022/04/05 07:25:12;;;;;;;5.80;2.47;;;;;;;-144.47;63.28;53430.13;5068026;28;20490;-69
2022/04/05 07:27:37;;;;;;;6.03;2.92;;;;;;;-144.47;62.93;53422.19;5047007;28;20121;-70
2022/04/05 07:30:03;;;;;;;8.10;3.80;;;;;;;-144.47;63.00;53455.97;5049841;28;20033;-67
2022/04/05 07:32:36;;;;;;;9.73;5.32;;;;;;;-144.47;63.03;53475.81;5050401;28;20040;-69
2022/04/05 07:35:01;;;;;;;18.27;6.43;;;;;;;-144.47;62.76;53434.09;5044733;28;20106;-68
2022/04/05 07:37:26;;;;;;;10.40;6.47;;;;;;;-144.47;62.26;53450.00;5054874;28;20478;-68
2022/04/05 07:39:52;;;;;;;12.57;6.65;;;;;;;-144.47;62.50;53440.06;5049835;28;20017;-70
2022/04/05 07:42:17;;;;;;;11.38;7.15;;;;;;;-144.47;61.91;53442.06;5049864;28;20152;-70
2022/04/05 07:44:42;;;;;;;14.25;6.43;;;;;;;-144.47;61.62;53475.81;5048409;28;20029;-69
2022/04/05 07:47:08;;;;;;;9.73;5.57;;;;;;;-144.47;61.69;53434.09;5049023;28;20036;-69
2022/04/05 07:49:33;;;;;;;9.63;5.72;;;;;;;-144.47;61.57;53428.16;5047827;28;20107;-68
2022/04/05 07:51:58;;;;;;;10.85;4.70;;;;;;;-144.47;61.08;53442.06;5048507;28;20035;-69
2022/04/05 07:54:24;;;;;;;9.25;4.90;;;;;;;-144.47;61.66;53416.22;5047644;28;20124;-70
2022/04/05 07:56:49;;;;;;;7.75;4.50;;;;;;;-144.47;61.24;53473.84;5048598;28;20044;-68
2022/04/05 07:59:14;;;;;;;10.15;5.32;;;;;;;-144.47;61.41;53412.25;5047995;28;20075;-69
2022/04/05 08:01:39;;;;;;;11.68;3.83;;;;;;;-144.47;60.85;53432.13;5049886;28;20083;-70
2022/04/05 08:04:05;;;;;;;9.63;2.60;;;;;;;-144.47;60.57;53461.91;5046711;28;20092;-68
2022/04/05 08:06:31;;;;;;;6.28;2.88;;;;;;;-144.47;60.64;53455.97;5049011;28;20075;-72
2022/04/05 08:08:56;;;;;;;6.47;2.30;;;;;;;-144.47;60.50;53471.84;5047169;28;20036;-69
2022/04/05 08:11:22;;;;;;;4.43;2.17;;;;;;;-144.47;60.50;53416.22;5042189;28;20118;-66
2022/04/05 08:13:47;;;;;;;5.30;2.58;;;;;;;-144.47;60.38;53432.13;5047482;28;20044;-70
2022/04/05 08:16:13;;;;;;;5.05;2.00;;;;;;;-144.47;60.47;53414.25;5056952;28;20032;-69
2022/04/05 08:18:38;;;;;;;4.63;2.45;;;;;;;-144.47;60.96;53428.16;5046131;28;20044;-69
2022/04/05 08:21:03;;;;;;;6.20;2.35;;;;;;;-144.47;60.87;53424.19;5050023;28;20493;-68
2022/04/05 08:23:29;;;;;;;7.07;2.70;;;;;;;-144.47;60.31;53430.13;5052874;28;20036;-67
2022/04/05 08:25:54;;;;;;;5.90;2.38;;;;;;;-144.47;59.79;53471.84;5057237;28;20033;-71
2022/04/05 08:28:19;;;;;;;4.78;2.45;;;;;;;-144.47;60.05;53414.25;5030727;28;20069;-71
2022/04/05 08:30:45;;;;;;;7.82;2.90;;;;;;;-144.47;59.96;53448.00;5051483;28;20037;-67
2022/04/05 08:33:10;;;;;;;6.95;2.70;;;;;;;-144.47;60.75;53416.22;5050833;28;20037;-68
2022/04/05 08:35:37;;;;;;;5.03;2.53;;;;;;;-144.47;60.43;53442.06;5041323;28;20032;-69
2022/04/05 08:38:02;;;;;;;10.20;3.05;;;;;;;-144.47;60.77;53422.19;5050316;28;20037;-71
2022/04/05 08:40:28;;;;;;;6.00;2.50;;;;;;;-144.47;60.64;53471.84;5051902;28;20037;-70
2022/04/05 08:42:56;;;;;;;6.93;2.55;;;;;;;-144.47;60.85;53428.16;5053527;28;20028;-69
2022/04/05 08:45:22;;;;;;;5.47;2.65;;;;;;;-144.47;61.35;53434.09;5057535;28;20033;-67
2022/04/05 08:47:55;;;;;;;10.10;3.00;;;;;;;-144.47;61.83;53442.06;5051164;28;20041;-69
2022/04/05 08:50:26;;;;;;;6.13;2.40;;;;;;;-144.47;61.70;53424.19;5051818;28;20427;-70
2022/04/05 08:52:54;;;;;;;6.25;2.70;;;;;;;-144.47;61.80;53453.97;5051114;28;20530;-70
2022/04/05 08:55:19;;;;;;;5.88;2.53;;;;;;;-144.47;61.96;53436.09;5034024;28;20032;-68
2022/04/05 08:57:44;;;;;;;8.05;3.20;;;;;;;-144.47;62.42;53412.25;5050845;28;20086;-71
2022/04/05 09:00:12;;;;;;;7.35;3.00;;;;;;;-144.47;61.54;53434.09;5048579;28;20116;-69
2022/04/05 09:02:38;;;;;;;25.20;8.45;;;;;;;-144.47;61.69;53446.03;5050745;28;20040;-69
2022/04/05 09:05:04;;;;;;;31.35;8.40;;;;;;;-144.47;63.78;53459.94;5050339;28;20134;-70
2022/04/05 09:07:35;;;;;;;16.38;4.47;;;;;;;-144.47;63.52;53477.81;5050256;28;20326;-70
2022/04/05 09:10:16;;;;;;;83.18;20.73;;;;;;;-144.47;63.62;53442.06;5031259;28;20028;-67
2022/04/05 09:12:44;;;;;;;18.13;4.55;;;;;;;-144.47;63.23;53453.97;5050976;28;20033;-70
2022/04/05 09:15:23;;;;;;;31.23;12.27;;;;;;;-144.47;63.83;53418.22;5051297;28;20090;-68
2022/04/05 09:17:49;;;;;;;24.95;6.20;;;;;;;-144.47;64.32;53414.25;5052082;28;20701;-69
2022/04/05 09:20:19;;;;;;;22.50;7.93;;;;;;;-144.47;63.92;53418.22;5054818;28;20057;-68
2022/04/05 09:22:44;;;;;;;12.07;3.50;;;;;;;-144.47;63.77;53440.06;5050280;28;20099;-69
2022/04/05 09:25:12;;;;;;;38.45;15.27;;;;;;;-144.47;63.37;53408.28;5052162;28;20163;-70
2022/04/05 09:27:49;;;;;;;16.65;4.30;;;;;;;-144.47;63.80;53418.22;5049462;28;20505;-70
2022/04/05 09:30:22;;;;;;;14.23;4.80;;;;;;;-144.47;63.38;53436.09;5056548;28;20039;-69
2022/04/05 09:32:48;;;;;;;24.52;9.10;;;;;;;-144.47;63.73;53465.91;5051352;28;20040;-70
2022/04/05 09:35:21;;;;;;;15.65;6.43;;;;;;;-144.47;63.00;53452.00;5052686;28;20083;-67
2022/04/05 09:37:47;;;;;;;12.13;4.30;;;;;;;-144.47;62.02;53434.09;5029294;28;20033;-68
2022/04/05 09:40:32;;;;;;;23.38;4.93;;;;;;;-144.47;61.44;53477.81;5049518;28;20032;-69
2022/04/05 09:43:04;;;;;;;13.75;4.03;;;;;;;-144.47;61.37;53412.25;5060110;28;20032;-67
2022/04/05 09:45:50;;;;;;;17.80;5.63;;;;;;;-144.47;61.21;53461.91;5056579;28;20119;-67
2022/04/05 09:48:19;;;;;;;16.08;4.38;;;;;;;-144.47;61.31;53455.97;5039972;28;20155;-68
2022/04/05 09:51:06;;;;;;;19.92;4.57;;;;;;;-144.47;61.71;53453.97;5051095;28;20060;-70
2022/04/05 09:53:51;;;;;;;30.02;4.53;;;;;;;-144.47;61.72;53432.13;5049584;28;20065;-69
2022/04/05 09:56:19;;;;;;;16.98;5.05;;;;;;;-144.47;61.71;53430.13;5050215;28;20507;-71
2022/04/05 09:58:46;;;;;;;17.48;7.10;;;;;;;-144.47;61.76;53489.72;5049289;28;20433;-69
2022/04/05 10:01:12;;;;;;;16.95;4.72;;;;;;;-144.47;62.05;53452.00;5051351;28;20021;-69
2022/04/05 10:03:56;;;;;;;17.90;4.75;;;;;;;-144.47;60.61;53450.00;5048664;28;20570;-68
2022/04/05 10:06:21;;;;;;;22.83;4.40;;;;;;;-144.47;60.16;53452.00;5054513;28;20021;-69
2022/04/05 10:08:46;;;;;;;17.55;4.55;;;;;;;-144.47;59.60;53438.09;5055281;28;20040;-72
2022/04/05 10:11:13;;;;;;;18.48;4.20;;;;;;;-144.47;59.70;53440.06;5046973;28;20033;-68
2022/04/05 10:13:38;;;;;;;15.80;4.40;;;;;;;-144.47;59.18;53392.41;5046804;28;20108;-71
2022/04/05 10:16:05;;;;;;;16.38;4.32;;;;;;;-144.47;58.85;53410.28;5050107;28;20455;-69
2022/04/05 10:18:35;;;;;;;19.70;4.68;;;;;;;-144.47;58.15;53438.09;5032322;28;20146;-68
2022/04/05 10:21:02;;;;;;;24.00;5.00;;;;;;;-144.47;57.68;53408.28;5055534;28;20028;-68
2022/04/05 10:23:29;;;;;;;16.30;4.95;;;;;;;-144.47;57.21;53396.38;5049361;28;20032;-71
2022/04/05 10:25:55;;;;;;;20.40;5.13;;;;;;;-144.47;57.23;53408.28;5051712;28;20040;-69
2022/04/05 10:28:32;;;;;;;22.67;5.82;;;;;;;-144.47;56.40;53428.16;5058412;28;20039;-70
2022/04/05 10:31:07;;;;;;;14.02;4.85;;;;;;;-144.47;56.17;53424.19;5046754;28;20474;-68
2022/04/05 10:33:55;;;;;;;15.10;4.68;;;;;;;-144.47;56.21;53412.25;5044552;28;20029;-69
2022/04/05 10:36:23;;;;;;;23.33;4.72;;;;;;;-144.47;56.39;53414.25;5037027;28;20048;-70
2022/04/05 10:39:15;;;;;;;15.60;5.00;;;;;;;-144.47;56.71;53422.19;5048684;28;20091;-68
2022/04/05 10:41:41;;;;;;;26.00;5.45;;;;;;;-144.47;56.47;53448.00;5046196;28;20061;-69
2022/04/05 10:44:24;;;;;;;18.63;5.18;;;;;;;-144.47;56.07;53396.38;5049797;28;20195;-68
2022/04/05 10:46:58;;;;;;;14.57;4.30;;;;;;;-144.47;55.97;53446.03;5049876;28;20037;-68
2022/04/05 10:49:44;;;;;;;10.77;4.95;;;;;;;-144.47;55.17;53432.13;5049987;28;20036;-69
2022/04/05 10:52:11;;;;;;;24.98;5.90;;;;;;;-144.47;55.33;53412.25;5049344;28;20033;-69
2022/04/05 10:54:46;;;;;;;29.30;8.05;;;;;;;-144.47;55.08;53428.16;5047842;28;20040;-70
2022/04/05 10:57:26;;;;;;;15.45;4.32;;;;;;;-144.47;55.12;53404.31;5048914;28;20090;-71
2022/04/05 11:00:04;;;;;;;19.50;5.20;;;;;;;-144.47;55.16;53412.25;5049035;28;20530;-69
2022/04/05 11:02:45;;;;;;;18.38;4.85;;;;;;;-144.47;55.61;53436.09;5031140;28;20120;-70
2022/04/05 11:05:18;;;;;;;14.05;5.60;;;;;;;-144.47;56.34;53366.56;5046057;28;20041;-70
2022/04/05 11:07:59;;;;;;;19.42;6.32;;;;;;;-144.47;57.58;53392.41;5048924;28;20041;-70
2022/04/05 11:10:36;;;;;;;16.23;5.72;;;;;;;-144.47;57.11;53400.34;5054324;28;20028;-70